Time;durP1;ratioP1;P1;durP2;ratioP2;P2;SDS_P1;SDS_P2;PMS_P1;PMS_P2;Temp;Humidity;BMP_temperature;BMP_pressure;BME280_temperature;BME280_humidity;BME280_pressure;Samples;Min_cycle;Max_cycle;Signal;HPM_P1;HPM_P2
2022/10/25 00:02:04;0.00;0.00;0.62;0.00;0.00;0.62;1.90;0.90;;;28.10;29.20;;;;;;2268778;61;20428;-69
2022/10/25 00:04:49;0.00;0.00;0.62;0.00;0.00;0.62;1.93;1.20;;;28.10;29.20;;;;;;2269487;61;20375;-69
2022/10/25 00:07:34;0.00;0.00;0.62;0.00;0.00;0.62;2.90;1.10;;;28.10;29.70;;;;;;2269462;61;20359;-67
2022/10/25 00:10:20;0.00;0.00;0.62;0.00;0.00;0.62;2.50;0.90;;;28.10;29.20;;;;;;2269057;61;20598;-68
2022/10/25 00:13:05;0.00;0.00;0.62;0.00;0.00;0.62;1.67;0.90;;;28.10;29.20;;;;;;2269532;61;20440;-68
2022/10/25 00:15:50;0.00;0.00;0.62;0.00;0.00;0.62;2.03;1.10;;;28.10;29.20;;;;;;2269255;61;20490;-69
2022/10/25 00:18:34;0.00;0.00;0.62;0.00;0.00;0.62;3.20;1.00;;;28.10;29.20;;;;;;2270194;61;20359;-68
2022/10/25 00:21:20;0.00;0.00;0.62;0.00;0.00;0.62;1.70;1.03;;;28.00;29.20;;;;;;2273792;61;20378;-68
2022/10/25 00:24:09;0.00;0.00;0.62;0.00;0.00;0.62;1.97;0.90;;;28.00;29.20;;;;;;2296530;61;20596;-69
2022/10/25 00:26:55;0.00;0.00;0.62;0.00;0.00;0.62;1.77;1.00;;;28.00;29.20;;;;;;2274237;61;20731;-68
2022/10/25 00:29:40;0.00;0.00;0.62;0.00;0.00;0.62;1.87;0.97;;;27.90;29.10;;;;;;2274429;61;20379;-69
2022/10/25 00:32:25;0.00;0.00;0.62;0.00;0.00;0.62;1.53;0.90;;;27.90;29.10;;;;;;2273868;61;20340;-68
2022/10/25 00:35:10;0.00;0.00;0.62;0.00;0.00;0.62;3.33;1.43;;;27.90;29.10;;;;;;2274056;61;20409;-69
2022/10/25 00:37:55;0.00;0.00;0.62;0.00;0.00;0.62;2.17;1.00;;;27.80;29.00;;;;;;2273904;61;20340;-69
2022/10/25 00:40:39;0.00;0.00;0.62;0.00;0.00;0.62;1.90;0.83;;;27.80;29.00;;;;;;2359706;53;20371;-69
2022/10/25 00:43:35;0.00;0.00;0.62;0.00;0.00;0.62;1.80;0.80;;;27.80;29.00;;;;;;2270064;61;20352;-69
2022/10/25 00:46:25;0.00;0.00;0.62;0.00;0.00;0.62;2.50;1.30;;;27.70;29.00;;;;;;2269301;61;20375;-69
2022/10/25 00:49:16;0.00;0.00;0.62;0.00;0.00;0.62;2.03;0.90;;;27.70;29.10;;;;;;2270103;61;20737;-69
2022/10/25 00:52:05;0.00;0.00;0.62;0.00;0.00;0.62;2.43;1.00;;;27.70;29.70;;;;;;2270355;61;20437;-68
2022/10/25 00:54:52;0.00;0.00;0.62;0.00;0.00;0.62;2.53;1.00;;;27.60;29.10;;;;;;2269435;61;20375;-69
2022/10/25 00:57:44;0.00;0.00;0.62;0.00;0.00;0.62;1.50;0.90;;;27.60;29.10;;;;;;2270263;61;20577;-69
2022/10/25 01:00:31;0.00;0.00;0.62;0.00;0.00;0.62;2.30;1.00;;;27.60;29.20;;;;;;2267695;61;20367;-69
2022/10/25 01:03:19;0.00;0.00;0.62;0.00;0.00;0.62;1.60;0.70;;;27.50;29.20;;;;;;2273732;61;20954;-69
2022/10/25 01:06:09;0.00;0.00;0.62;0.00;0.00;0.62;2.07;0.90;;;27.50;29.20;;;;;;2274310;61;20401;-68
2022/10/25 01:08:56;0.00;0.00;0.62;0.00;0.00;0.62;1.60;0.80;;;27.50;29.30;;;;;;2273109;61;20401;-69
2022/10/25 01:11:40;0.00;0.00;0.62;0.00;0.00;0.62;1.77;0.90;;;27.50;29.30;;;;;;2274170;61;20602;-69
2022/10/25 01:14:26;0.00;0.00;0.62;0.00;0.00;0.62;1.87;0.90;;;27.50;29.30;;;;;;2273605;61;20459;-69
2022/10/25 01:17:21;0.00;0.00;0.62;0.00;0.00;0.62;1.50;0.70;;;27.40;29.30;;;;;;2273505;61;20352;-68
2022/10/25 01:21:03;0.00;0.00;0.62;0.00;0.00;0.62;1.30;0.80;;;27.40;29.30;;;;;;2274248;61;20431;-69
2022/10/25 01:24:07;0.00;0.00;0.62;0.00;0.00;0.62;2.67;1.33;;;27.40;29.30;;;;;;2272777;61;20398;-69
2022/10/25 01:27:26;0.00;0.00;0.62;0.00;0.00;0.62;2.13;0.90;;;27.40;29.30;;;;;;2274209;61;20561;-69
2022/10/25 01:30:19;0.00;0.00;0.62;0.00;0.00;0.62;2.37;1.10;;;27.40;29.40;;;;;;2271577;61;20434;-69
2022/10/25 01:33:15;0.00;0.00;0.62;0.00;0.00;0.62;2.93;0.90;;;27.30;29.40;;;;;;2274226;61;20394;-69
2022/10/25 01:36:08;0.00;0.00;0.62;0.00;0.00;0.62;2.17;1.00;;;27.30;29.40;;;;;;2274023;61;20379;-69
2022/10/25 01:38:59;0.00;0.00;0.62;0.00;0.00;0.62;3.20;1.10;;;27.30;29.40;;;;;;2273345;61;20755;-69
2022/10/25 01:41:58;0.00;0.00;0.62;0.00;0.00;0.62;2.73;1.40;;;27.20;29.40;;;;;;2274315;61;20351;-69
2022/10/25 01:44:53;0.00;0.00;0.62;0.00;0.00;0.62;1.43;0.80;;;27.20;29.50;;;;;;2273312;61;20606;-68
2022/10/25 01:47:45;0.00;0.00;0.62;0.00;0.00;0.62;3.53;1.23;;;27.20;29.50;;;;;;2273871;61;20386;-68
2022/10/25 01:50:35;0.00;0.00;0.62;0.00;0.00;0.62;2.40;0.90;;;27.20;29.50;;;;;;2274021;61;20781;-69
2022/10/25 01:53:19;0.00;0.00;0.62;0.00;0.00;0.62;6.40;0.90;;;27.20;29.60;;;;;;2273007;61;20355;-69
2022/10/25 01:56:05;0.00;0.00;0.62;0.00;0.00;0.62;1.70;0.80;;;27.20;29.50;;;;;;2274163;61;20425;-69
2022/10/25 01:59:15;0.00;0.00;0.62;0.00;0.00;0.62;2.10;0.90;;;27.20;29.60;;;;;;2273493;61;20389;-68
2022/10/25 02:02:09;0.00;0.00;0.62;0.00;0.00;0.62;1.83;1.10;;;27.20;29.60;;;;;;2273615;61;20355;-69
2022/10/25 02:05:03;0.00;0.00;0.62;0.00;0.00;0.62;2.30;1.00;;;27.20;29.60;;;;;;2273738;61;20374;-68
2022/10/25 02:08:01;0.00;0.00;0.62;0.00;0.00;0.62;2.10;1.40;;;27.20;29.70;;;;;;2272868;61;20395;-69
2022/10/25 02:10:52;0.00;0.00;0.62;0.00;0.00;0.62;3.13;1.10;;;27.20;29.70;;;;;;2274095;61;20379;-68
2022/10/25 02:13:51;0.00;0.00;0.62;0.00;0.00;0.62;3.57;1.33;;;27.20;29.70;;;;;;2273275;61;20364;-69
2022/10/25 02:16:43;0.00;0.00;0.62;0.00;0.00;0.62;2.60;1.20;;;27.20;29.70;;;;;;2273572;61;20431;-69
2022/10/25 02:19:33;0.00;0.00;0.62;0.00;0.00;0.62;3.00;1.40;;;27.10;29.70;;;;;;2274055;61;20359;-70
2022/10/25 02:22:23;0.00;0.00;0.62;0.00;0.00;0.62;1.60;1.00;;;27.10;30.20;;;;;;2273056;61;20372;-70
2022/10/25 02:25:10;0.00;0.00;0.62;0.00;0.00;0.62;2.10;1.00;;;27.10;30.30;;;;;;2273932;61;20379;-69
2022/10/25 02:27:57;0.00;0.00;0.62;0.00;0.00;0.62;2.20;0.90;;;27.10;29.80;;;;;;2274010;61;20442;-68
2022/10/25 02:30:43;0.00;0.00;0.62;0.00;0.00;0.62;3.80;1.20;;;27.10;29.90;;;;;;2273126;61;20395;-68
2022/10/25 02:33:28;0.00;0.00;0.62;0.00;0.00;0.62;1.93;0.83;;;27.00;29.80;;;;;;2273805;61;20428;-68
2022/10/25 02:36:15;0.00;0.00;0.62;0.00;0.00;0.62;1.50;0.90;;;27.10;29.90;;;;;;2273250;61;20461;-68
2022/10/25 02:39:01;0.00;0.00;0.62;0.00;0.00;0.62;1.50;0.90;;;27.00;29.90;;;;;;2270082;61;20690;-68
2022/10/25 02:41:47;0.00;0.00;0.62;0.00;0.00;0.62;1.90;1.00;;;27.00;29.90;;;;;;2273891;61;20402;-67
2022/10/25 02:44:32;0.00;0.00;0.62;0.00;0.00;0.62;2.17;1.40;;;27.00;29.90;;;;;;2269633;61;20379;-67
2022/10/25 02:47:17;0.00;0.00;0.62;0.00;0.00;0.62;1.67;0.93;;;27.00;29.90;;;;;;2273922;61;20359;-68
2022/10/25 02:50:02;0.00;0.00;0.62;0.00;0.00;0.62;1.70;0.90;;;27.00;30.00;;;;;;2270651;61;20596;-67
2022/10/25 02:52:47;0.00;0.00;0.62;0.00;0.00;0.62;1.90;1.00;;;27.00;29.90;;;;;;2273067;61;20387;-67
2022/10/25 02:55:31;0.00;0.00;0.62;0.00;0.00;0.62;1.97;0.80;;;27.00;29.90;;;;;;2273690;61;20383;-68
2022/10/25 02:58:17;0.00;0.00;0.62;0.00;0.00;0.62;2.47;1.17;;;27.00;30.00;;;;;;2273294;61;20391;-68
2022/10/25 03:01:03;0.00;0.00;0.62;0.00;0.00;0.62;1.60;1.00;;;27.00;30.00;;;;;;2273134;61;20576;-68
2022/10/25 03:03:48;0.00;0.00;0.62;0.00;0.00;0.62;1.80;1.13;;;27.00;30.00;;;;;;2273580;61;20367;-69
2022/10/25 03:06:33;0.00;0.00;0.62;0.00;0.00;0.62;2.27;0.93;;;27.00;30.00;;;;;;2273090;61;20355;-68
2022/10/25 03:09:17;0.00;0.00;0.62;0.00;0.00;0.62;2.53;0.97;;;27.00;30.00;;;;;;2273759;61;20351;-68
2022/10/25 03:12:02;0.00;0.00;0.62;0.00;0.00;0.62;1.70;1.00;;;27.00;30.00;;;;;;2273703;61;20343;-69
2022/10/25 03:14:48;0.00;0.00;0.62;0.00;0.00;0.62;2.07;0.90;;;27.00;30.00;;;;;;2269585;61;20386;-67
2022/10/25 03:17:33;0.00;0.00;0.62;0.00;0.00;0.62;2.33;1.10;;;27.00;30.00;;;;;;2273837;61;20781;-68
2022/10/25 03:20:17;0.00;0.00;0.62;0.00;0.00;0.62;2.20;1.10;;;26.90;30.00;;;;;;2273425;61;20837;-68
2022/10/25 03:23:02;0.00;0.00;0.62;0.00;0.00;0.62;2.00;0.90;;;26.90;30.00;;;;;;2273172;61;20791;-67
2022/10/25 03:25:50;0.00;0.00;0.62;0.00;0.00;0.62;1.70;1.00;;;26.90;30.00;;;;;;2273701;61;20395;-69
2022/10/25 03:28:35;0.00;0.00;0.62;0.00;0.00;0.62;2.87;1.37;;;27.00;30.00;;;;;;2272848;61;20710;-67
2022/10/25 03:31:21;0.00;0.00;0.62;0.00;0.00;0.62;2.77;1.10;;;27.00;30.00;;;;;;2273509;61;20762;-68
2022/10/25 03:34:05;0.00;0.00;0.62;0.00;0.00;0.62;2.57;1.50;;;27.00;30.10;;;;;;2273636;61;20363;-68
2022/10/25 03:36:51;0.00;0.00;0.62;0.00;0.00;0.62;1.73;1.03;;;27.00;30.10;;;;;;2272709;61;20625;-67
2022/10/25 03:39:35;0.00;0.00;0.62;0.00;0.00;0.62;3.37;1.70;;;26.90;30.00;;;;;;2273575;61;20615;-70
2022/10/25 03:42:20;0.00;0.00;0.62;0.00;0.00;0.62;3.90;2.20;;;26.90;30.20;;;;;;2273179;61;20387;-71
2022/10/25 03:45:06;0.00;0.00;0.62;0.00;0.00;0.62;3.60;1.63;;;26.90;30.20;;;;;;2273011;61;20371;-68
2022/10/25 03:47:52;0.00;0.00;0.62;0.00;0.00;0.62;3.10;1.90;;;26.80;30.10;;;;;;2273682;61;20355;-68
2022/10/25 03:50:37;0.00;0.00;0.62;0.00;0.00;0.62;3.17;1.97;;;26.80;30.20;;;;;;2273161;61;20589;-69
2022/10/25 03:53:21;0.00;0.00;0.62;0.00;0.00;0.62;3.40;1.90;;;26.70;30.20;;;;;;2274023;61;20409;-69
2022/10/25 03:56:07;0.00;0.00;0.62;0.00;0.00;0.62;4.60;2.40;;;26.70;30.30;;;;;;2274467;61;20443;-68
2022/10/25 03:58:52;0.00;0.00;0.62;0.00;0.00;0.62;3.27;1.70;;;26.70;30.40;;;;;;2273368;61;20363;-68
2022/10/25 04:01:37;0.00;0.00;0.62;0.00;0.00;0.62;2.23;1.50;;;26.60;30.30;;;;;;2274595;61;20351;-67
2022/10/25 04:04:23;0.00;0.00;0.62;0.00;0.00;0.62;2.40;1.50;;;26.60;30.30;;;;;;2274108;61;20416;-68
2022/10/25 04:07:08;0.00;0.00;0.62;0.00;0.00;0.62;2.87;1.30;;;26.60;30.40;;;;;;2273318;61;20478;-68
2022/10/25 04:09:52;0.00;0.00;0.62;0.00;0.00;0.62;3.10;1.80;;;26.60;30.40;;;;;;2274022;61;20397;-68
2022/10/25 04:12:37;0.00;0.00;0.62;0.00;0.00;0.62;5.07;2.23;;;26.60;30.40;;;;;;2273552;61;20382;-69
2022/10/25 04:15:23;0.00;0.00;0.62;0.00;0.00;0.62;2.80;1.70;;;26.60;31.20;;;;;;2273984;61;20443;-68
2022/10/25 04:18:07;0.00;0.00;0.62;0.00;0.00;0.62;3.97;2.20;;;26.50;30.60;;;;;;2274101;61;20352;-69
2022/10/25 04:20:54;0.00;0.00;0.62;0.00;0.00;0.62;2.33;1.57;;;26.50;30.50;;;;;;2273302;61;20383;-68
2022/10/25 04:23:38;0.00;0.00;0.62;0.00;0.00;0.62;1.93;1.37;;;26.50;30.50;;;;;;2273971;61;20355;-68
2022/10/25 04:26:23;0.00;0.00;0.62;0.00;0.00;0.62;4.73;2.30;;;26.50;30.70;;;;;;2274035;61;20355;-67
2022/10/25 04:29:09;0.00;0.00;0.62;0.00;0.00;0.62;2.93;1.70;;;26.50;30.60;;;;;;2273588;61;20383;-67
2022/10/25 04:31:53;0.00;0.00;0.62;0.00;0.00;0.62;1.93;1.37;;;26.50;30.80;;;;;;2274091;61;20402;-69
2022/10/25 04:34:38;0.00;0.00;0.62;0.00;0.00;0.62;4.30;1.93;;;26.50;30.80;;;;;;2273457;61;20437;-68
2022/10/25 04:37:25;0.00;0.00;0.62;0.00;0.00;0.62;2.70;2.00;;;26.50;30.90;;;;;;2273663;61;20711;-68
2022/10/25 04:40:11;0.00;0.00;0.62;0.00;0.00;0.62;3.60;2.30;;;26.50;31.00;;;;;;2273960;61;20370;-68
2022/10/25 04:42:56;0.00;0.00;0.62;0.00;0.00;0.62;5.77;2.20;;;26.40;31.00;;;;;;2273255;61;20363;-68
2022/10/25 04:45:41;0.00;0.00;0.62;0.00;0.00;0.62;4.10;2.20;;;26.40;31.00;;;;;;2273955;61;20371;-68
2022/10/25 04:48:25;0.00;0.00;0.62;0.00;0.00;0.62;4.83;2.10;;;26.40;31.00;;;;;;2273893;61;20375;-70
2022/10/25 04:51:10;0.00;0.00;0.62;0.00;0.00;0.62;4.47;2.20;;;26.40;31.00;;;;;;2507130;53;20751;-73
2022/10/25 04:53:57;0.00;0.00;0.62;0.00;0.00;0.62;3.90;2.07;;;26.40;31.00;;;;;;2269766;61;20402;-69
2022/10/25 04:56:41;0.00;0.00;0.62;0.00;0.00;0.62;3.27;2.40;;;26.40;31.00;;;;;;2266512;61;20345;-68
2022/10/25 04:59:26;0.00;0.00;0.62;0.00;0.00;0.62;3.30;1.90;;;26.30;31.60;;;;;;2269693;61;20803;-68
2022/10/25 05:02:11;0.00;0.00;0.62;0.00;0.00;0.62;2.87;2.00;;;26.30;30.90;;;;;;2270009;61;20349;-72
2022/10/25 05:04:56;0.00;0.00;0.62;0.00;0.00;0.62;2.43;1.50;;;26.30;30.90;;;;;;2266178;61;20380;-74
2022/10/25 05:07:40;0.00;0.00;0.62;0.00;0.00;0.62;4.87;2.20;;;26.30;30.90;;;;;;2270012;61;20340;-71
2022/10/25 05:10:27;0.00;0.00;0.62;0.00;0.00;0.62;4.43;2.27;;;26.20;30.90;;;;;;2266182;61;20384;-74
2022/10/25 05:13:12;0.00;0.00;0.62;0.00;0.00;0.62;4.00;1.70;;;26.20;30.80;;;;;;2266103;61;20364;-72
2022/10/25 05:15:57;0.00;0.00;0.62;0.00;0.00;0.62;2.60;1.60;;;26.20;30.80;;;;;;2266331;61;20399;-71
2022/10/25 05:18:45;0.00;0.00;0.62;0.00;0.00;0.62;3.23;1.63;;;26.20;30.80;;;;;;2269428;61;20387;-71
2022/10/25 05:21:30;0.00;0.00;0.62;0.00;0.00;0.62;3.93;1.90;;;26.20;30.80;;;;;;2272337;61;20443;-72
2022/10/25 05:24:15;0.00;0.00;0.62;0.00;0.00;0.62;3.40;1.90;;;26.20;30.90;;;;;;2273201;61;20371;-74
2022/10/25 05:27:03;0.00;0.00;0.62;0.00;0.00;0.62;2.57;1.30;;;26.20;31.60;;;;;;2272854;61;20397;-72
2022/10/25 05:29:48;0.00;0.00;0.62;0.00;0.00;0.62;2.70;1.90;;;26.20;31.00;;;;;;2273333;61;20355;-72
2022/10/25 05:32:32;0.00;0.00;0.62;0.00;0.00;0.62;3.47;1.87;;;26.20;31.00;;;;;;2273654;61;20719;-72
2022/10/25 05:35:17;0.00;0.00;0.62;0.00;0.00;0.62;4.03;1.87;;;26.20;31.00;;;;;;2272990;61;20374;-72
2022/10/25 05:38:02;0.00;0.00;0.62;0.00;0.00;0.62;2.60;1.50;;;26.20;31.00;;;;;;2273935;61;20393;-74
2022/10/25 05:40:52;0.00;0.00;0.62;0.00;0.00;0.62;1.83;1.30;;;26.20;31.00;;;;;;2344497;53;20384;-70
2022/10/25 05:43:39;0.00;0.00;0.62;0.00;0.00;0.62;2.53;1.77;;;26.20;31.00;;;;;;2269575;61;20360;-74
2022/10/25 05:46:24;0.00;0.00;0.62;0.00;0.00;0.62;3.23;1.70;;;26.20;31.00;;;;;;2269721;61;20345;-73
2022/10/25 05:49:10;0.00;0.00;0.62;0.00;0.00;0.62;2.70;1.43;;;26.20;31.00;;;;;;2266014;61;20570;-70
2022/10/25 05:51:55;0.00;0.00;0.62;0.00;0.00;0.62;1.83;1.30;;;26.20;31.00;;;;;;2286035;61;20410;-71
2022/10/25 05:54:39;0.00;0.00;0.62;0.00;0.00;0.62;2.67;1.40;;;26.20;31.00;;;;;;2270496;61;20383;-73
2022/10/25 05:57:24;0.00;0.00;0.62;0.00;0.00;0.62;2.70;1.43;;;26.20;31.00;;;;;;2273500;61;20355;-71
2022/10/25 06:00:12;0.00;0.00;0.62;0.00;0.00;0.62;1.90;1.27;;;26.20;31.00;;;;;;2273973;61;20359;-73
2022/10/25 06:03:00;0.00;0.00;0.62;0.00;0.00;0.62;2.57;1.40;;;26.20;30.90;;;;;;2273518;61;20344;-70
2022/10/25 06:05:45;0.00;0.00;0.62;0.00;0.00;0.62;1.80;1.30;;;26.30;31.00;;;;;;2273595;61;20607;-71
2022/10/25 06:08:30;0.00;0.00;0.62;0.00;0.00;0.62;3.20;1.20;;;26.30;30.90;;;;;;2273538;61;20383;-73
2022/10/25 06:11:17;0.00;0.00;0.62;0.00;0.00;0.62;3.40;1.60;;;26.30;30.90;;;;;;2273064;61;20383;-71
2022/10/25 06:14:03;0.00;0.00;0.62;0.00;0.00;0.62;2.03;1.43;;;26.30;30.90;;;;;;2273451;61;20356;-72
2022/10/25 06:16:49;0.00;0.00;0.62;0.00;0.00;0.62;3.27;1.40;;;26.30;30.90;;;;;;2273771;61;20383;-72
2022/10/25 06:19:34;0.00;0.00;0.62;0.00;0.00;0.62;6.00;2.37;;;26.30;30.90;;;;;;2272962;61;20359;-72
2022/10/25 06:22:18;0.00;0.00;0.62;0.00;0.00;0.62;2.77;1.50;;;26.30;30.90;;;;;;2273237;61;20389;-70
2022/10/25 06:25:04;0.00;0.00;0.62;0.00;0.00;0.62;2.40;1.70;;;26.30;30.90;;;;;;2273153;61;20585;-72
2022/10/25 06:27:49;0.00;0.00;0.62;0.00;0.00;0.62;4.97;1.83;;;26.30;30.90;;;;;;2272950;61;20362;-70
2022/10/25 06:30:34;0.00;0.00;0.62;0.00;0.00;0.62;2.27;1.60;;;26.30;30.90;;;;;;2273672;61;20465;-73
2022/10/25 06:33:21;0.00;0.00;0.62;0.00;0.00;0.62;4.93;2.33;;;26.30;30.90;;;;;;2273236;61;20405;-71
2022/10/25 06:36:11;0.00;0.00;0.62;0.00;0.00;0.62;5.03;1.90;;;26.30;30.90;;;;;;2273452;61;20375;-70
2022/10/25 06:38:57;0.00;0.00;0.62;0.00;0.00;0.62;4.30;1.90;;;26.30;31.00;;;;;;2273684;61;20623;-70
2022/10/25 06:41:41;0.00;0.00;0.62;0.00;0.00;0.62;2.27;1.50;;;26.30;30.90;;;;;;2273155;61;20379;-70
2022/10/25 06:44:27;0.00;0.00;0.62;0.00;0.00;0.62;3.00;1.80;;;26.30;30.90;;;;;;2270115;61;20409;-70
2022/10/25 06:47:12;0.00;0.00;0.62;0.00;0.00;0.62;2.97;1.70;;;26.30;31.00;;;;;;2273571;61;20382;-68
2022/10/25 06:49:58;0.00;0.00;0.62;0.00;0.00;0.62;3.77;1.73;;;26.30;31.00;;;;;;2273350;61;20459;-68
2022/10/25 06:52:43;0.00;0.00;0.62;0.00;0.00;0.62;3.07;1.67;;;26.30;31.00;;;;;;2273596;61;20358;-69
2022/10/25 06:55:27;0.00;0.00;0.62;0.00;0.00;0.62;3.50;1.67;;;26.30;31.10;;;;;;2273187;61;20378;-69
2022/10/25 06:58:12;0.00;0.00;0.62;0.00;0.00;0.62;2.37;1.60;;;26.30;31.10;;;;;;2271038;61;20428;-71
2022/10/25 07:01:00;0.00;0.00;0.62;0.00;0.00;0.62;3.50;1.80;;;26.30;31.10;;;;;;2273656;61;20354;-68
2022/10/25 07:03:45;0.00;0.00;0.62;0.00;0.00;0.62;4.73;1.80;;;26.30;31.10;;;;;;2272754;61;20385;-69
2022/10/25 07:06:34;0.00;0.00;0.62;0.00;0.00;0.62;4.07;2.20;;;26.30;31.10;;;;;;2273205;61;20355;-72
2022/10/25 07:09:19;0.00;0.00;0.62;0.00;0.00;0.62;3.00;1.47;;;26.30;31.10;;;;;;2273624;61;20459;-69
2022/10/25 07:12:04;0.00;0.00;0.62;0.00;0.00;0.62;6.03;1.73;;;26.30;31.00;;;;;;2273230;61;20594;-70
2022/10/25 07:14:49;0.00;0.00;0.62;0.00;0.00;0.62;6.20;1.80;;;26.30;31.00;;;;;;2273652;61;20390;-74
2022/10/25 07:17:33;0.00;0.00;0.62;0.00;0.00;0.62;3.60;1.83;;;26.30;31.00;;;;;;2272916;61;20393;-73
2022/10/25 07:20:18;0.00;0.00;0.62;0.00;0.00;0.62;3.20;1.73;;;26.30;30.90;;;;;;2273437;61;20393;-69
2022/10/25 07:23:04;0.00;0.00;0.62;0.00;0.00;0.62;3.37;1.90;;;26.30;31.00;;;;;;2273647;61;20437;-70
2022/10/25 07:25:49;0.00;0.00;0.62;0.00;0.00;0.62;3.50;1.87;;;26.30;31.10;;;;;;2271287;61;20382;-71
2022/10/25 07:28:33;0.00;0.00;0.62;0.00;0.00;0.62;5.53;1.97;;;26.30;30.90;;;;;;2507535;53;20621;-71
2022/10/25 07:31:21;0.00;0.00;0.62;0.00;0.00;0.62;5.30;2.60;;;26.30;30.90;;;;;;2266152;61;20414;-71
2022/10/25 07:34:06;0.00;0.00;0.62;0.00;0.00;0.62;2.63;1.70;;;26.30;30.90;;;;;;2265506;61;20368;-70
2022/10/25 07:36:50;0.00;0.00;0.62;0.00;0.00;0.62;3.50;1.70;;;26.30;30.90;;;;;;2269806;61;20642;-72
2022/10/25 07:39:36;0.00;0.00;0.62;0.00;0.00;0.62;3.30;1.73;;;26.30;31.00;;;;;;2272000;61;20375;-70
2022/10/25 07:42:21;0.00;0.00;0.62;0.00;0.00;0.62;4.23;1.87;;;26.30;31.00;;;;;;2273043;61;20438;-69
2022/10/25 07:45:08;0.00;0.00;0.62;0.00;0.00;0.62;5.63;1.93;;;26.30;31.00;;;;;;2273698;61;20397;-72
2022/10/25 07:47:53;0.00;0.00;0.62;0.00;0.00;0.62;2.40;1.70;;;26.30;31.00;;;;;;2272601;61;20355;-71
2022/10/25 07:50:38;0.00;0.00;0.62;0.00;0.00;0.62;2.60;1.80;;;26.20;30.90;;;;;;2273923;61;20417;-71
2022/10/25 07:53:23;0.00;0.00;0.62;0.00;0.00;0.62;6.10;1.90;;;26.20;31.00;;;;;;2272959;61;20382;-71
2022/10/25 07:56:12;0.00;0.00;0.62;0.00;0.00;0.62;4.13;1.90;;;26.20;31.00;;;;;;2272340;61;20390;-72
2022/10/25 07:58:57;0.00;0.00;0.62;0.00;0.00;0.62;3.83;2.07;;;26.20;31.10;;;;;;2270592;61;20614;-72
2022/10/25 08:01:42;0.00;0.00;0.62;0.00;0.00;0.62;4.00;2.20;;;26.20;31.10;;;;;;2270097;61;20428;-68
2022/10/25 08:04:30;0.00;0.00;0.62;0.00;0.00;0.62;3.27;1.70;;;26.20;31.20;;;;;;2269911;61;20742;-68
2022/10/25 08:07:15;0.00;0.00;0.62;0.00;0.00;0.62;3.30;1.97;;;26.20;31.20;;;;;;2273650;61;20356;-71
2022/10/25 08:10:00;0.00;0.00;0.62;0.00;0.00;0.62;4.00;1.87;;;26.20;31.90;;;;;;2272480;61;20368;-73
2022/10/25 08:12:47;0.00;0.00;0.62;0.00;0.00;0.62;4.20;2.00;;;26.20;31.20;;;;;;2270756;61;20564;-75
2022/10/25 08:15:32;0.00;0.00;0.62;0.00;0.00;0.62;4.30;1.83;;;26.20;31.20;;;;;;2273831;61;20395;-70
2022/10/25 08:18:17;0.00;0.00;0.62;0.00;0.00;0.62;8.53;1.77;;;26.20;31.20;;;;;;2269474;61;20363;-71
2022/10/25 08:21:02;0.00;0.00;0.62;0.00;0.00;0.62;4.83;2.10;;;26.20;31.90;;;;;;2273781;61;20366;-70
2022/10/25 08:23:47;0.00;0.00;0.62;0.00;0.00;0.62;2.67;1.70;;;26.20;31.20;;;;;;2273321;61;20763;-73
2022/10/25 08:26:32;0.00;0.00;0.62;0.00;0.00;0.62;3.97;2.80;;;26.10;31.20;;;;;;2272721;61;20351;-69
2022/10/25 08:29:18;0.00;0.00;0.62;0.00;0.00;0.62;2.57;1.70;;;26.10;31.30;;;;;;2273630;61;20674;-72
2022/10/25 08:32:04;0.00;0.00;0.62;0.00;0.00;0.62;5.00;1.40;;;26.10;32.00;;;;;;2272525;61;20399;-75
2022/10/25 08:34:48;0.00;0.00;0.62;0.00;0.00;0.62;3.53;1.80;;;26.10;31.30;;;;;;2273461;61;20807;-73
2022/10/25 08:37:33;0.00;0.00;0.62;0.00;0.00;0.62;3.97;1.97;;;26.10;31.30;;;;;;2273986;61;20428;-71
2022/10/25 08:40:21;0.00;0.00;0.62;0.00;0.00;0.62;3.27;1.87;;;26.10;31.30;;;;;;2270382;61;20405;-72
2022/10/25 08:43:18;0.00;0.00;0.62;0.00;0.00;0.62;3.30;1.80;;;26.10;31.30;;;;;;2274146;61;20359;-72
2022/10/25 08:46:12;0.00;0.00;0.62;0.00;0.00;0.62;3.03;1.50;;;26.10;31.30;;;;;;2273861;61;20375;-70
2022/10/25 08:49:15;0.00;0.00;0.62;0.00;0.00;0.62;4.07;1.70;;;26.20;31.30;;;;;;2273685;61;20392;-70
2022/10/25 08:52:01;0.00;0.00;0.62;0.00;0.00;0.62;3.00;1.40;;;26.20;31.30;;;;;;2274157;61;20390;-73
2022/10/25 08:54:47;0.00;0.00;0.62;0.00;0.00;0.62;1.70;1.10;;;26.20;31.20;;;;;;2270097;61;20451;-72
2022/10/25 08:57:36;0.00;0.00;0.62;0.00;0.00;0.62;3.30;1.83;;;26.20;31.20;;;;;;2268327;61;20753;-71
2022/10/25 09:00:23;0.00;0.00;0.62;0.00;0.00;0.62;2.40;1.57;;;26.30;31.30;;;;;;2274152;61;20379;-73
2022/10/25 09:03:14;0.00;0.00;0.62;0.00;0.00;0.62;1.93;1.17;;;26.30;31.20;;;;;;2270542;61;20616;-72
2022/10/25 09:06:12;0.00;0.00;0.62;0.00;0.00;0.62;2.53;1.37;;;26.30;31.20;;;;;;2274346;61;20484;-71
2022/10/25 09:09:15;0.00;0.00;0.62;0.00;0.00;0.62;2.13;1.00;;;26.40;31.20;;;;;;2273515;61;20577;-71
2022/10/25 09:12:13;0.00;0.00;0.62;0.00;0.00;0.62;2.50;1.00;;;26.40;31.10;;;;;;2274224;61;20378;-74
2022/10/25 09:15:05;0.00;0.00;0.62;0.00;0.00;0.62;3.00;1.43;;;26.50;31.20;;;;;;2274141;61;20742;-76
2022/10/25 09:17:52;0.00;0.00;0.62;0.00;0.00;0.62;1.60;1.00;;;26.50;31.10;;;;;;2274096;61;20791;-70
2022/10/25 09:20:47;0.00;0.00;0.62;0.00;0.00;0.62;2.97;1.40;;;26.50;31.70;;;;;;2274117;61;20389;-73
2022/10/25 09:23:32;0.00;0.00;0.62;0.00;0.00;0.62;1.90;1.00;;;26.50;31.00;;;;;;2270568;61;20545;-73
2022/10/25 09:26:28;0.00;0.00;0.62;0.00;0.00;0.62;2.67;1.20;;;26.60;31.10;;;;;;2270753;61;20590;-72
2022/10/25 09:29:22;0.00;0.00;0.62;0.00;0.00;0.62;5.10;1.13;;;26.60;31.10;;;;;;2274210;61;20347;-72
2022/10/25 09:32:17;0.00;0.00;0.62;0.00;0.00;0.62;2.60;1.23;;;26.60;31.10;;;;;;2269965;61;20378;-72
2022/10/25 09:35:04;0.00;0.00;0.62;0.00;0.00;0.62;1.50;1.00;;;26.70;31.20;;;;;;2268041;61;20367;-72
2022/10/25 09:37:54;0.00;0.00;0.62;0.00;0.00;0.62;1.60;1.00;;;26.70;31.20;;;;;;2270755;61;20362;-71
2022/10/25 09:40:45;0.00;0.00;0.62;0.00;0.00;0.62;1.67;0.97;;;26.80;31.90;;;;;;2270578;61;20400;-76
2022/10/25 09:43:35;0.00;0.00;0.62;0.00;0.00;0.62;1.60;1.10;;;26.80;31.30;;;;;;2274007;61;20363;-73
2022/10/25 09:46:27;0.00;0.00;0.62;0.00;0.00;0.62;2.30;1.00;;;26.80;31.30;;;;;;2272964;61;20423;-72
2022/10/25 09:49:23;0.00;0.00;0.62;0.00;0.00;0.62;2.00;1.07;;;26.80;31.30;;;;;;2274275;61;20362;-69
2022/10/25 09:52:17;0.00;0.00;0.62;0.00;0.00;0.62;1.50;1.00;;;26.90;31.30;;;;;;2274112;61;20424;-73
2022/10/25 09:55:28;0.00;0.00;0.62;0.00;0.00;0.62;1.63;1.10;;;26.90;31.30;;;;;;2273716;61;20375;-72
2022/10/25 09:58:19;0.00;0.00;0.62;0.00;0.00;0.62;3.00;1.10;;;26.90;31.30;;;;;;2274111;61;20363;-72
2022/10/25 10:01:07;0.00;0.00;0.62;0.00;0.00;0.62;2.67;1.30;;;26.90;31.30;;;;;;2273341;61;20864;-75
2022/10/25 10:03:52;0.00;0.00;0.62;0.00;0.00;0.62;1.67;1.00;;;27.00;31.40;;;;;;2270929;61;20742;-74
2022/10/25 10:06:39;0.00;0.00;0.62;0.00;0.00;0.62;1.90;1.40;;;27.00;31.40;;;;;;2274083;61;20663;-73
2022/10/25 10:09:27;0.00;0.00;0.62;0.00;0.00;0.62;2.37;1.20;;;27.00;31.40;;;;;;2270066;61;20625;-73
2022/10/25 10:12:21;0.00;0.00;0.62;0.00;0.00;0.62;1.80;1.20;;;27.00;32.00;;;;;;2273945;61;20426;-72
2022/10/25 10:15:14;0.00;0.00;0.62;0.00;0.00;0.62;4.23;1.37;;;27.00;31.40;;;;;;2273494;61;20379;-72
2022/10/25 10:18:23;0.00;0.00;0.62;0.00;0.00;0.62;1.60;0.90;;;27.10;31.40;;;;;;2270745;61;20359;-72
2022/10/25 10:21:16;0.00;0.00;0.62;0.00;0.00;0.62;2.00;0.90;;;27.10;31.40;;;;;;2273907;61;20401;-70
2022/10/25 10:24:05;0.00;0.00;0.62;0.00;0.00;0.62;1.70;1.10;;;27.10;31.40;;;;;;2273132;61;20351;-73
2022/10/25 10:26:55;0.00;0.00;0.62;0.00;0.00;0.62;2.60;1.40;;;27.10;31.40;;;;;;2270723;61;20568;-70
2022/10/25 10:29:55;0.00;0.00;0.62;0.00;0.00;0.62;1.43;1.10;;;27.20;31.40;;;;;;2273651;61;20360;-73
2022/10/25 10:32:39;0.00;0.00;0.62;0.00;0.00;0.62;1.60;0.93;;;27.20;31.30;;;;;;2270473;61;20409;-73
2022/10/25 10:35:29;0.00;0.00;0.62;0.00;0.00;0.62;1.90;1.00;;;27.20;31.30;;;;;;2273827;61;20409;-71
2022/10/25 10:38:22;0.00;0.00;0.62;0.00;0.00;0.62;2.00;1.20;;;27.20;31.20;;;;;;2272668;61;20356;-71
2022/10/25 10:41:23;0.00;0.00;0.62;0.00;0.00;0.62;1.97;1.20;;;27.20;31.20;;;;;;2269942;61;20368;-73
2022/10/25 10:44:12;0.00;0.00;0.62;0.00;0.00;0.62;2.00;1.23;;;27.30;31.10;;;;;;2269441;61;20364;-71
2022/10/25 10:46:59;0.00;0.00;0.62;0.00;0.00;0.62;2.57;1.40;;;27.30;31.10;;;;;;2269273;61;20380;-72
2022/10/25 10:49:43;0.00;0.00;0.62;0.00;0.00;0.62;1.60;1.10;;;27.30;31.10;;;;;;2269949;61;20364;-74
2022/10/25 10:52:35;0.00;0.00;0.62;0.00;0.00;0.62;2.10;1.10;;;27.30;31.00;;;;;;2269631;61;20439;-74
2022/10/25 10:55:27;0.00;0.00;0.62;0.00;0.00;0.62;2.07;1.20;;;27.30;31.00;;;;;;2269213;61;20408;-74
2022/10/25 10:58:15;0.00;0.00;0.62;0.00;0.00;0.62;2.93;1.20;;;27.40;31.10;;;;;;2269885;61;20432;-74
2022/10/25 11:01:03;0.00;0.00;0.62;0.00;0.00;0.62;2.13;1.20;;;27.40;31.00;;;;;;2265749;61;20348;-73
2022/10/25 11:03:56;0.00;0.00;0.62;0.00;0.00;0.62;2.30;1.50;;;27.40;31.00;;;;;;2266589;61;20395;-72